Time;durP1;ratioP1;P1;durP2;ratioP2;P2;SDS_P1;SDS_P2;PMS_P1;PMS_P2;Temp;Humidity;BMP_temperature;BMP_pressure;BME280_temperature;BME280_humidity;BME280_pressure;Samples;Min_cycle;Max_cycle;Signal;HPM_P1;HPM_P2
2022/07/31 00:00:39;;;;;;;15.63;11.63;;;25.10;64.50;;;;;;5052610;28;20029;-50
2022/07/31 00:03:05;;;;;;;18.13;11.35;;;25.10;64.50;;;;;;5052792;28;20480;-52
2022/07/31 00:05:30;;;;;;;13.25;10.05;;;25.20;64.40;;;;;;5052532;28;20119;-54
2022/07/31 00:07:57;;;;;;;15.57;11.83;;;25.20;64.30;;;;;;5052329;28;20115;-54
2022/07/31 00:10:23;;;;;;;14.95;10.82;;;;;;;;;;5052340;28;20108;-52
2022/07/31 00:12:49;;;;;;;13.65;10.88;;;;;;;;;;5052115;28;20031;-54
2022/07/31 00:15:15;;;;;;;14.45;11.70;;;;;;;;;;5051913;28;20029;-53
2022/07/31 00:17:42;;;;;;;17.48;12.20;;;;;;;;;;5052311;28;20031;-53
2022/07/31 00:20:12;;;;;;;15.65;12.52;;;;;;;;;;5034259;28;20059;-52
2022/07/31 00:22:38;;;;;;;13.25;10.75;;;;;;;;;;5052340;28;20039;-54
2022/07/31 00:25:04;;;;;;;16.25;12.18;;;;;;;;;;5052035;28;20021;-53
2022/07/31 00:27:30;;;;;;;17.88;10.43;;;25.20;63.90;;;;;;5052153;28;20398;-53
2022/07/31 00:29:56;;;;;;;15.10;11.60;;;24.90;64.70;;;;;;5051993;28;20033;-54
2022/07/31 00:32:21;;;;;;;13.90;11.53;;;24.80;64.80;;;;;;5051966;28;20029;-53
2022/07/31 00:34:47;;;;;;;15.53;11.60;;;24.70;65.20;;;;;;5033861;28;20064;-53
2022/07/31 00:37:13;;;;;;;13.83;10.63;;;24.70;65.30;;;;;;5051538;28;20430;-52
2022/07/31 00:39:38;;;;;;;13.83;11.47;;;24.70;65.30;;;;;;5051836;28;20039;-54
2022/07/31 00:42:05;;;;;;;15.37;11.00;;;24.70;65.40;;;;;;5052061;28;20036;-54
2022/07/31 00:44:30;;;;;;;18.92;11.40;;;24.70;65.20;;;;;;5051261;28;20079;-53
2022/07/31 00:46:56;;;;;;;11.37;10.07;;;;;;;;;;5051853;28;20017;-52
2022/07/31 00:49:23;;;;;;;15.20;12.00;;;;;;;;;;5050999;28;20036;-53
2022/07/31 00:51:50;;;;;;;16.02;11.15;;;;;;;;;;5051717;28;20676;-54
2022/07/31 00:54:16;;;;;;;12.23;10.95;;;;;;;;;;5051461;28;20082;-54
2022/07/31 00:56:42;;;;;;;13.97;10.90;;;24.60;65.40;;;;;;5051425;28;20025;-52
2022/07/31 00:59:07;;;;;;;13.87;10.40;;;24.20;66.60;;;;;;5051551;28;20108;-50
2022/07/31 01:01:33;;;;;;;15.97;10.63;;;24.10;67.40;;;;;;5051723;28;20032;-50
2022/07/31 01:03:59;;;;;;;16.33;10.97;;;23.90;67.80;;;;;;5051832;28;20025;-50
2022/07/31 01:06:25;;;;;;;23.33;10.50;;;;;;;;;;5051531;28;20410;-50
2022/07/31 01:08:51;;;;;;;11.98;10.38;;;;;;;;;;5051442;28;20025;-50
2022/07/31 01:11:33;;;;;;;16.90;11.37;;;;;;;;;;5052016;28;20082;-49
2022/07/31 01:14:05;;;;;;;13.65;10.80;;;;;;;;;;5051104;28;20643;-51
2022/07/31 01:16:33;;;;;;;18.38;11.48;;;;;;;;;;5032969;28;20025;-50
2022/07/31 01:19:00;;;;;;;12.32;11.02;;;;;;;;;;5051174;28;20060;-50
2022/07/31 01:21:28;;;;;;;15.55;11.43;;;;;;;;;;5051210;28;20091;-50
2022/07/31 01:24:13;;;;;;;13.65;10.82;;;;;;;;;;5051518;28;20394;-50
2022/07/31 01:27:02;;;;;;;14.68;11.00;;;;;;;;;;5051031;28;20057;-50
2022/07/31 01:29:30;;;;;;;14.48;10.85;;;;;;;;;;5050980;28;20036;-50
2022/07/31 01:32:23;;;;;;;19.83;10.48;;;;;;;;;;5051021;28;20028;-50
2022/07/31 01:34:52;;;;;;;13.35;10.20;;;;;;;;;;5025704;28;20099;-50
2022/07/31 01:37:23;;;;;;;13.88;10.63;;;;;;;;;;5050864;28;20460;-50
2022/07/31 01:39:53;;;;;;;12.88;10.52;;;;;;;;;;5050987;28;20039;-50
2022/07/31 01:42:20;;;;;;;10.98;9.70;;;;;;;;;;5051175;28;20021;-50
2022/07/31 01:44:49;;;;;;;14.80;10.30;;;;;;;;;;5051384;28;20377;-50
2022/07/31 01:47:19;;;;;;;13.07;10.07;;;;;;;;;;5055154;28;20444;-50
2022/07/31 01:49:45;;;;;;;14.43;9.88;;;;;;;;;;5036512;28;20090;-50
2022/07/31 01:52:12;;;;;;;14.48;9.68;;;;;;;;;;5055110;28;20521;-50
2022/07/31 01:54:38;;;;;;;;;;;;;;;;;;5055416;28;20045;-50
2022/07/31 01:57:05;;;;;;;14.90;9.70;;;;;;;;;;5054934;28;19915;-50
2022/07/31 01:59:33;;;;;;;16.85;9.25;;;;;;;;;;5054434;28;20033;-50
2022/07/31 02:02:02;;;;;;;12.77;10.38;;;;;;;;;;5055061;28;20036;-50
2022/07/31 02:04:28;;;;;;;12.23;10.00;;;;;;;;;;5054928;28;20032;-50
2022/07/31 02:06:54;;;;;;;;;;;;;;;;;;5054797;28;20411;-50
2022/07/31 02:09:22;;;;;;;13.68;9.45;;;;;;;;;;5054378;28;19908;-50
2022/07/31 02:11:48;;;;;;;15.25;9.52;;;;;;;;;;5054640;28;20502;-51
2022/07/31 02:14:16;;;;;;;13.68;9.93;;;;;;;;;;5054688;28;20494;-50
2022/07/31 02:16:42;;;;;;;10.88;9.77;;;;;;;;;;5054425;28;20482;-50
2022/07/31 02:19:10;;;;;;;13.75;8.95;;;;;;;;;;5054300;28;20036;-50
2022/07/31 02:21:36;;;;;;;8.98;7.75;;;;;;;;;;5054638;28;20541;-50
2022/07/31 02:24:02;;;;;;;9.57;8.17;;;;;;;;;;5053101;28;20029;-50
2022/07/31 02:26:29;;;;;;;10.57;9.20;;;;;;;;;;5053222;28;20083;-50
2022/07/31 02:28:55;;;;;;;12.27;8.73;;;;;;;;;;5054314;28;20024;-50
2022/07/31 02:31:22;;;;;;;14.35;8.90;;;;;;;;;;5054313;28;20060;-50
2022/07/31 02:33:48;;;;;;;10.70;8.38;;;;;;;;;;5054181;28;20032;-50
2022/07/31 02:36:16;;;;;;;10.15;9.15;;;;;;;;;;5053988;28;20098;-49
2022/07/31 02:38:43;;;;;;;14.98;8.95;;;;;;;;;;5053921;28;20116;-50
2022/07/31 02:41:10;;;;;;;11.75;8.23;;;;;;;;;;5053888;28;20109;-50
2022/07/31 02:43:36;;;;;;;8.85;7.95;;;;;;;;;;5053796;28;20112;-50
2022/07/31 02:46:03;;;;;;;13.90;8.65;;;;;;;;;;5035969;28;20112;-50
2022/07/31 02:48:29;;;;;;;14.68;9.20;;;;;;;;;;5053391;28;20029;-49
2022/07/31 02:50:55;;;;;;;8.68;7.88;;;;;;;;;;5054252;28;20029;-50
2022/07/31 02:53:22;;;;;;;11.75;8.50;;;;;;;;;;5053238;28;20108;-50
2022/07/31 02:55:49;;;;;;;11.68;8.85;;;;;;;;;;5053059;28;20398;-50
2022/07/31 02:58:15;;;;;;;9.90;8.30;;;;;;;;;;5053236;28;20062;-50
2022/07/31 03:00:41;;;;;;;9.77;8.57;;;;;;;;;;5053724;28;20033;-51
2022/07/31 03:03:07;;;;;;;10.93;8.30;;;;;;;;;;5053821;28;20029;-50
2022/07/31 03:05:33;;;;;;;9.60;8.67;;;;;;;;;;5053349;28;20273;-50
2022/07/31 03:07:59;;;;;;;8.67;7.70;;;;;;;;;;5053412;28;20426;-49
2022/07/31 03:10:25;;;;;;;11.93;9.50;;;;;;;;;;5053378;28;20047;-50
2022/07/31 03:12:52;;;;;;;11.95;9.02;;;;;;;;;;5053817;28;20444;-50
2022/07/31 03:15:19;;;;;;;12.18;7.78;;;;;;;;;;5023599;28;20458;-50
2022/07/31 03:17:46;;;;;;;9.98;7.72;;;;;;;;;;5051792;28;20036;-50
2022/07/31 03:20:13;;;;;;;8.80;7.90;;;;;;;;;;5044832;28;20068;-50
2022/07/31 03:22:40;;;;;;;10.70;7.47;;;;;;;;;;5037737;28;20060;-51
2022/07/31 03:25:07;;;;;;;11.02;8.30;;;;;;;;;;5053077;28;20095;-50
2022/07/31 03:27:33;;;;;;;10.35;8.75;;;;;;;;;;5052893;28;20434;-51
2022/07/31 03:29:59;;;;;;;9.82;7.97;;;;;;;;;;5053219;28;20117;-50
2022/07/31 03:32:25;;;;;;;10.80;8.53;;;;;;;;;;5053092;28;20037;-50
2022/07/31 03:34:51;;;;;;;16.45;9.07;;;;;;;;;;5052696;28;20399;-49
2022/07/31 03:37:17;;;;;;;12.63;9.40;;;;;;;;;;5042983;28;20020;-50
2022/07/31 03:39:43;;;;;;;16.90;10.33;;;;;;;;;;5052492;28;20029;-50
2022/07/31 03:42:09;;;;;;;11.27;9.63;;;;;;;;;;5052805;28;20082;-51
2022/07/31 03:44:36;;;;;;;13.77;9.75;;;;;;;;;;5034571;28;20033;-50
2022/07/31 03:47:02;;;;;;;10.88;8.35;;;;;;;;;;5052571;28;20482;-50
2022/07/31 03:49:30;;;;;;;9.75;8.02;;;;;;;;;;5052650;28;20082;-50
2022/07/31 03:51:57;;;;;;;14.80;9.90;;;;;;;;;;5052626;28;20497;-49
2022/07/31 03:54:23;;;;;;;12.23;8.17;;;;;;;;;;5052868;28;20033;-54
2022/07/31 03:56:50;;;;;;;10.30;8.83;;;;;;;;;;5052555;28;20398;-47
2022/07/31 03:59:17;;;;;;;14.20;9.63;;;23.90;68.20;;;;;;5051225;28;20035;-49
2022/07/31 04:01:43;;;;;;;11.65;8.73;;;23.50;68.80;;;;;;5050526;28;20037;-51
2022/07/31 04:04:10;;;;;;;12.68;9.30;;;23.30;69.00;;;;;;5034756;28;20519;-50
2022/07/31 04:06:36;;;;;;;10.43;8.98;;;23.20;70.20;;;;;;5052785;28;20029;-51
2022/07/31 04:09:02;;;;;;;15.23;8.80;;;23.10;70.60;;;;;;5052330;28;20104;-51
2022/07/31 04:11:28;;;;;;;12.20;9.20;;;23.00;70.50;;;;;;5052692;28;20024;-51
2022/07/31 04:13:54;;;;;;;12.10;8.93;;;23.00;70.70;;;;;;5052603;28;20032;-50
2022/07/31 04:16:20;;;;;;;13.38;9.73;;;22.90;70.80;;;;;;5052431;28;20040;-52
2022/07/31 04:18:46;;;;;;;13.23;9.87;;;22.90;70.90;;;;;;5052548;28;20025;-50
2022/07/31 04:21:12;;;;;;;10.87;9.33;;;22.90;71.00;;;;;;5052433;28;20029;-50
2022/07/31 04:23:38;;;;;;;13.37;9.97;;;22.90;71.10;;;;;;5052500;28;20021;-51
2022/07/31 04:26:04;;;;;;;10.57;9.48;;;22.90;71.20;;;;;;5052464;28;20387;-50
2022/07/31 04:28:30;;;;;;;13.65;10.25;;;22.90;71.30;;;;;;5052119;28;20033;-50
2022/07/31 04:30:56;;;;;;;11.53;10.10;;;22.90;71.40;;;;;;5052263;28;20024;-50
2022/07/31 04:33:21;;;;;;;14.87;11.27;;;22.90;71.50;;;;;;5052241;28;20063;-51
2022/07/31 04:35:47;;;;;;;11.98;10.77;;;22.80;71.50;;;;;;5034443;28;20207;-52
2022/07/31 04:38:15;;;;;;;14.90;11.27;;;22.90;71.70;;;;;;5052084;28;20021;-54
2022/07/31 04:40:41;;;;;;;15.30;11.80;;;22.90;71.80;;;;;;5052080;28;20025;-53
2022/07/31 04:43:07;;;;;;;12.13;10.93;;;;;;;;;;5052064;28;20033;-51
2022/07/31 04:45:33;;;;;;;15.37;10.80;;;;;;;;;;5052011;28;20079;-50
2022/07/31 04:47:59;;;;;;;14.37;12.07;;;;;;;;;;5051858;28;20021;-50
2022/07/31 04:50:25;;;;;;;13.13;11.77;;;;;;;;;;5052269;28;20029;-51
2022/07/31 04:52:51;;;;;;;17.70;12.57;;;;;;;;;;5051966;28;20064;-51
2022/07/31 04:55:17;;;;;;;16.97;12.33;;;;;;;;;;5050771;28;20059;-51
2022/07/31 04:57:43;;;;;;;15.20;12.43;;;23.00;71.80;;;;;;5050573;28;20037;-51
2022/07/31 05:00:10;;;;;;;17.15;12.45;;;;;;;;;;5051712;28;20096;-50
2022/07/31 05:02:36;;;;;;;14.15;12.50;;;;;;;;;;5044234;28;20036;-50
2022/07/31 05:05:02;;;;;;;16.45;12.80;;;;;;;;;;5038312;28;20017;-51
2022/07/31 05:07:28;;;;;;;14.90;13.20;;;;;;;;;;5049776;28;20121;-50
2022/07/31 05:09:54;;;;;;;16.70;13.43;;;;;;;;;;5036104;28;20029;-50
2022/07/31 05:12:20;;;;;;;17.97;12.30;;;;;;;;;;5051188;28;20078;-50
2022/07/31 05:14:46;;;;;;;13.53;11.90;;;;;;;;;;5051561;28;20032;-53
2022/07/31 05:17:12;;;;;;;17.90;13.63;;;;;;;;;;5051512;28;20032;-50
2022/07/31 05:19:38;;;;;;;20.03;13.63;;;;;;;;;;5050807;28;20036;-50
2022/07/31 05:22:05;;;;;;;16.23;13.33;;;;;;;;;;5051627;28;20021;-54
2022/07/31 05:24:31;;;;;;;17.30;13.30;;;;;;;;;;5051562;28;20021;-50
2022/07/31 05:26:57;;;;;;;15.52;13.32;;;;;;;;;;5051431;28;20025;-50
2022/07/31 05:29:23;;;;;;;15.55;13.35;;;;;;;;;;5051366;28;20029;-50
2022/07/31 05:31:50;;;;;;;17.65;12.80;;;;;;;;;;5051451;28;20376;-50
2022/07/31 05:34:16;;;;;;;22.77;13.65;;;23.00;72.90;;;;;;5051518;28;20029;-49
2022/07/31 05:36:41;;;;;;;15.83;13.73;;;23.40;73.40;;;;;;5051670;28;20025;-50
2022/07/31 05:39:08;;;;;;;15.63;12.97;;;23.40;73.10;;;;;;5051257;28;20029;-50
2022/07/31 05:41:34;;;;;;;17.77;13.10;;;23.40;73.10;;;;;;5051498;28;20025;-50
2022/07/31 05:44:01;;;;;;;15.20;13.60;;;;;;;;;;5051222;28;20452;-51
2022/07/31 05:46:27;;;;;;;17.98;13.60;;;;;;;;;;5051171;28;20074;-50
2022/07/31 05:48:53;;;;;;;15.18;13.48;;;;;;;;;;5051177;28;20659;-51
2022/07/31 05:51:19;;;;;;;17.63;14.10;;;;;;;;;;5051362;28;20613;-50
2022/07/31 05:53:45;;;;;;;15.30;13.80;;;;;;;;;;5033353;28;20021;-51
2022/07/31 05:56:11;;;;;;;18.33;13.40;;;23.40;73.50;;;;;;5051046;28;20745;-50
2022/07/31 05:58:37;;;;;;;15.97;13.53;;;;;;;;;;5051495;28;20025;-50
2022/07/31 06:01:03;;;;;;;15.25;12.27;;;;;;;;;;5051136;28;20031;-50
2022/07/31 06:03:34;;;;;;;15.90;14.20;;;;;;;;;;5033505;28;20100;-50
2022/07/31 06:06:00;;;;;;;19.42;13.68;;;;;;;;;;5051179;28;20479;-50
2022/07/31 06:08:27;;;;;;;17.02;13.02;;;;;;;;;;5050686;28;20024;-50
2022/07/31 06:10:54;;;;;;;15.63;12.30;;;;;;;;;;5051082;28;20049;-50
2022/07/31 06:13:23;;;;;;;17.38;13.32;;;;;;;;;;5051177;28;20033;-51
2022/07/31 06:15:49;;;;;;;18.05;12.55;;;;;;;;;;5033141;28;20037;-52
2022/07/31 06:18:15;;;;;;;15.00;11.67;;;;;;;;;;5050908;28;20071;-51
2022/07/31 06:20:41;;;;;;;13.03;11.40;;;;;;;;;;5050948;28;20076;-51
2022/07/31 06:23:09;;;;;;;13.55;12.15;;;;;;;;;;5050752;28;20029;-50
2022/07/31 06:25:35;;;;;;;14.82;10.88;;;;;;;;;;5050949;28;20029;-50
2022/07/31 06:28:01;;;;;;;10.57;7.83;;;;;;;;;;5050751;28;20032;-50
2022/07/31 06:30:27;;;;;;;13.83;8.67;;;;;;;;;;5051313;28;20298;-50
2022/07/31 06:32:53;;;;;;;14.70;9.50;;;;;;;;;;5054540;28;20029;-50
2022/07/31 06:35:19;;;;;;;13.03;8.60;;;;;;;;;;5054608;28;20056;-54
2022/07/31 06:37:45;;;;;;;9.20;7.70;;;;;;;;;;5054304;28;20036;-50
2022/07/31 06:40:12;;;;;;;14.60;8.83;;;;;;;;;;5054376;28;20032;-50
2022/07/31 06:42:38;;;;;;;10.50;8.07;;;;;;;;;;5054276;28;20241;-50
2022/07/31 06:45:04;;;;;;;9.15;7.28;;;;;;;;;;5054373;28;20480;-50
2022/07/31 06:47:30;;;;;;;8.73;7.45;;;;;;;;;;5036293;28;20071;-50
2022/07/31 06:49:56;;;;;;;8.25;6.90;;;;;;;;;;5036233;28;20032;-50
2022/07/31 06:52:22;;;;;;;10.45;7.43;;;;;;;;;;5054096;28;20076;-50
2022/07/31 06:54:48;;;;;;;9.52;7.47;;;;;;;;;;5054088;28;20517;-50
2022/07/31 06:57:15;;;;;;;14.70;6.55;;;;;;;;;;5053953;28;20027;-50
2022/07/31 06:59:41;;;;;;;5.22;4.38;;;;;;;;;;5036129;28;20025;-50
2022/07/31 07:02:07;;;;;;;10.40;5.63;;;;;;;;;;5054059;28;20108;-51
2022/07/31 07:04:33;;;;;;;6.57;5.30;;;;;;;;;;5053997;28;20047;-50
2022/07/31 07:07:02;;;;;;;6.72;4.60;;;;;;;;;;5053644;28;20075;-50
2022/07/31 07:09:28;;;;;;;7.00;6.05;;;;;;;;;;5053722;28;20029;-51
2022/07/31 07:11:54;;;;;;;8.52;6.05;;;;;;;;;;5053959;28;20403;-50
2022/07/31 07:14:20;;;;;;;7.70;6.10;;;;;;;;;;5053816;28;20025;-53
2022/07/31 07:16:46;;;;;;;6.93;6.20;;;;;;;;;;5053642;28;20074;-50
2022/07/31 07:19:12;;;;;;;8.55;6.50;;;;;;;;;;5053593;28;20028;-50
2022/07/31 07:21:38;;;;;;;9.87;6.83;;;;;;;;;;5053510;28;20032;-52
2022/07/31 07:24:05;;;;;;;8.93;6.87;;;;;;;;;;5053587;28;20283;-50
2022/07/31 07:26:31;;;;;;;9.43;6.53;;;;;;;;;;5053453;28;20057;-50
2022/07/31 07:28:58;;;;;;;8.52;5.57;;;;;;;;;;5053526;28;20024;-51
2022/07/31 07:31:24;;;;;;;7.13;5.55;;;;;;;;;;5053523;28;20036;-51
2022/07/31 07:33:50;;;;;;;5.55;4.32;;;;;;;;;;5053467;28;20021;-50
2022/07/31 07:36:16;;;;;;;6.63;5.03;;;;;;;;;;5053212;28;20033;-51
2022/07/31 07:38:42;;;;;;;5.20;4.10;;;;;;;;;;5035313;28;20499;-54
2022/07/31 07:41:08;;;;;;;8.13;3.95;;;;;;;;;;5053195;28;20033;-51
2022/07/31 07:43:34;;;;;;;4.60;3.90;;;;;;;;;;5052584;28;20579;-52
2022/07/31 07:46:00;;;;;;;6.78;4.25;;;;;;;;;;5053357;28;20079;-53
2022/07/31 07:48:26;;;;;;;5.13;4.00;;;;;;;;;;5052993;28;20032;-53
2022/07/31 07:50:52;;;;;;;5.43;4.45;;;;;;;;;;5052998;28;20036;-50
2022/07/31 07:53:18;;;;;;;5.50;4.50;;;;;;;;;;5053217;28;20029;-52
2022/07/31 07:55:45;;;;;;;4.50;3.63;;;;;;;;;;5053080;28;20266;-51
2022/07/31 07:58:11;;;;;;;5.87;3.73;;;;;;;;;;5034897;28;20260;-53
2022/07/31 08:00:37;;;;;;;6.67;4.07;;;;;;;;;;5052899;28;20346;-52
2022/07/31 08:03:03;;;;;;;4.77;3.93;;;;;;;;;;5052804;28;20283;-51
2022/07/31 08:05:29;;;;;;;6.18;4.28;;;;;;;;;;5052874;28;20610;-51
2022/07/31 08:07:55;;;;;;;6.25;3.53;;;;;;;;;;5053038;28;20075;-52
2022/07/31 08:10:21;;;;;;;5.78;3.28;;;;;;;;;;5052763;28;20100;-53
2022/07/31 08:12:47;;;;;;;4.40;4.00;;;;;;;;;;5052733;28;20036;-56
2022/07/31 08:15:13;;;;;;;6.97;5.05;;;;;;;;;;5052653;28;20020;-54
2022/07/31 08:17:39;;;;;;;4.82;3.10;;;;;;;;;;5052360;28;20041;-53
2022/07/31 08:20:05;;;;;;;6.00;3.78;;;;;;;;;;5052349;28;20031;-57
2022/07/31 08:22:31;;;;;;;5.63;3.33;;;;;;;;;;5052450;28;20029;-56
2022/07/31 08:24:57;;;;;;;4.70;4.20;;;;;;;;;;5052590;28;20013;-62
2022/07/31 08:27:23;;;;;;;5.55;3.88;;;;;;;;;;5052342;28;20060;-61
2022/07/31 08:29:53;;;;;;;6.68;3.97;;;;;;;;;;5052286;28;20028;-63
2022/07/31 08:32:19;;;;;;;5.07;3.70;;;;;;;;;;5052218;28;20033;-63
2022/07/31 08:34:45;;;;;;;6.82;4.40;;;;;;;;;;5052013;28;20151;-63
2022/07/31 08:37:12;;;;;;;4.50;3.65;;;;;;;;;;5052008;28;20416;-63
2022/07/31 08:39:38;;;;;;;;;;;;;;;;;;5052544;28;20024;-62
2022/07/31 08:42:08;;;;;;;4.63;3.90;;;;;;;;;;5052098;28;19909;-63
2022/07/31 08:44:37;;;;;;;4.95;3.63;;;;;;;;;;5052115;28;20033;-63
2022/07/31 08:47:07;;;;;;;4.43;3.88;;;;;;;;;;5051885;28;20036;-63
2022/07/31 08:49:39;;;;;;;5.15;3.83;;;;;;;;;;5051649;28;20510;-63
2022/07/31 08:52:07;;;;;;;4.78;3.28;;;;;;;;;;5052041;28;20108;-63
2022/07/31 08:54:34;;;;;;;5.50;4.07;;;;;;;;;;5050982;28;20455;-63
2022/07/31 08:57:00;;;;;;;5.60;3.63;;;;;;;;;;5033799;28;20024;-63
2022/07/31 08:59:26;;;;;;;3.92;3.30;;;;;;;;;;5051724;28;20033;-63
2022/07/31 09:01:55;;;;;;;5.50;2.95;;;;;;;;;;5051679;28;20021;-63
2022/07/31 09:04:22;;;;;;;5.75;3.67;;;;;;;;;;5051634;28;20021;-63
2022/07/31 09:06:48;;;;;;;5.47;3.90;;;;;;;;;;5051328;28;20391;-63
2022/07/31 09:09:16;;;;;;;5.60;3.00;;;;;;;;;;5051658;28;20049;-64
2022/07/31 09:11:49;;;;;;;4.63;3.17;;;;;;;;;;5051683;28;20476;-61
2022/07/31 09:14:24;;;;;;;4.60;3.40;;;;;;;;;;5051615;28;20031;-61
2022/07/31 09:16:51;;;;;;;4.05;3.63;;;;;;;;;;5051500;28;20032;-62
2022/07/31 09:19:17;;;;;;;7.10;4.07;;;;;;;;;;5051471;28;20464;-63
2022/07/31 09:21:44;;;;;;;5.72;4.43;;;;;;;;;;5051565;28;20499;-63
2022/07/31 09:24:11;;;;;;;4.78;3.75;;;;;;;;;;5051530;28;20025;-63
2022/07/31 09:26:39;;;;;;;5.13;3.90;;;;;;;;;;5051370;28;20484;-63
2022/07/31 09:29:12;;;;;;;6.32;3.10;;;;;;;;;;5033540;28;20028;-63
2022/07/31 09:31:38;;;;;;;4.38;3.65;;;;;;;;;;5051465;28;20032;-63
2022/07/31 09:34:04;;;;;;;3.95;3.45;;;;;;;;;;5051382;28;20086;-63
2022/07/31 09:36:31;;;;;;;5.03;3.47;;;;;;;;;;5051265;28;20104;-63
2022/07/31 09:38:58;;;;;;;3.70;3.30;;;;;;;;;;5051275;28;20037;-63
2022/07/31 09:41:24;;;;;;;;;;;;;;;;;;5051620;28;20021;-63
2022/07/31 09:43:58;;;;;;;5.68;3.95;;;;;;;;;;5051318;28;19988;-63
2022/07/31 09:46:24;;;;;;;5.45;2.80;;;;;;;;;;5051187;28;20391;-63
2022/07/31 09:48:51;;;;;;;4.00;3.55;;;;;;;;;;5051068;28;20029;-63
2022/07/31 09:51:17;;;;;;;6.10;4.68;;;;;;;;;;5051323;28;20036;-63
2022/07/31 09:53:55;;;;;;;4.25;3.85;;;;;;;;;;5051129;28;20029;-63
2022/07/31 09:56:21;;;;;;;;;;;;;;;;;;5051485;28;20025;-63
2022/07/31 09:58:47;;;;;;;7.38;3.60;;;;;;;;;;5033241;28;19905;-63
2022/07/31 10:01:13;;;;;;;4.35;3.35;;;;;;;;;;5033230;28;20080;-63
2022/07/31 10:03:40;;;;;;;6.00;3.95;;;;;;;;;;5051124;28;20524;-63
2022/07/31 10:06:06;;;;;;;;;;;;;;;;;;5053137;28;20056;-63
2022/07/31 10:08:34;;;;;;;4.88;3.58;;;;;;;;;;5036900;28;20340;-64
2022/07/31 10:11:01;;;;;;;4.05;3.53;;;;;;;;;;5037034;28;20021;-63
2022/07/31 10:13:28;;;;;;;5.22;3.47;;;;;;;;;;5054894;28;20029;-63
2022/07/31 10:15:56;;;;;;;4.15;3.03;;;;;;;;;;5054883;28;20056;-64
2022/07/31 10:18:23;;;;;;;8.40;4.35;;;;;;;;;;5054638;28;20089;-63
2022/07/31 10:20:51;;;;;;;3.10;2.70;;;;;;;;;;5036798;28;20029;-64
2022/07/31 10:23:26;;;;;;;3.80;2.80;;;;;;;;;;5054584;28;20057;-63
2022/07/31 10:25:56;;;;;;;3.25;2.22;;;;;;;;;;5054744;28;20108;-63
2022/07/31 10:28:23;;;;;;;4.25;2.97;;;;;;;;;;5054511;28;20033;-63
2022/07/31 10:30:49;;;;;;;;;;;;;;;;;;5037201;28;20059;-63
2022/07/31 10:33:16;;;;;;;4.07;2.80;;;;;;;;;;5054517;28;19951;-63
2022/07/31 10:35:54;;;;;;;4.47;2.35;;;;;;;;;;5054463;28;20388;-64
2022/07/31 10:38:22;;;;;;;6.05;2.50;;;;;;;;;;5054297;28;20032;-63
2022/07/31 10:40:51;;;;;;;3.95;2.45;;;;;;;;;;5054454;28;20040;-64
2022/07/31 10:43:19;;;;;;;5.75;3.20;;;;;;;;;;5054337;28;20028;-63
2022/07/31 10:45:45;;;;;;;4.30;2.70;;;;;;;;;;5054796;28;20383;-63
2022/07/31 10:48:12;;;;;;;7.53;3.25;;;;;;;;;;5054196;28;20031;-63
2022/07/31 10:50:38;;;;;;;3.45;2.63;;;;;;;;;;5074877;22;20106;-64
2022/07/31 10:53:11;;;;;;;2.92;2.58;;;;;;;;;;5074081;28;20070;-64
2022/07/31 10:55:37;;;;;;;4.25;3.25;;;;;;;;;;5074213;28;20078;-64
2022/07/31 10:58:23;;;;;;;5.50;2.97;;;;;;;;;;5074039;28;20397;-64
2022/07/31 11:00:51;;;;;;;3.15;2.80;;;;;;;;;;5072693;28;20038;-64
2022/07/31 11:03:18;;;;;;;5.13;2.63;;;;;;;;;;5094473;28;20063;-64
2022/07/31 11:05:55;;;;;;;3.67;2.72;;;;;;;;;;5094258;28;20478;-64
2022/07/31 11:08:21;;;;;;;6.10;2.63;;;;;;;;;;5093709;28;20070;-64
2022/07/31 11:10:59;;;;;;;7.20;3.15;;;;;;;;;;5093837;28;20020;-64
2022/07/31 11:13:27;;;;;;;4.63;2.05;;;;;;;;;;5093734;28;20035;-65
2022/07/31 11:16:02;;;;;;;4.55;2.13;;;;;;;;;;5093114;28;20028;-64
2022/07/31 11:18:29;;;;;;;2.35;2.05;;;;;;;;;;5092833;28;20028;-65
2022/07/31 11:21:02;;;;;;;2.72;2.38;;;;;;;;;;5093866;28;20024;-65
2022/07/31 11:23:29;;;;;;;3.30;2.53;;;;;;;;;;5093852;28;20506;-64
2022/07/31 11:25:58;;;;;;;3.42;2.22;;;;;;;;;;5093823;28;20020;-64
2022/07/31 11:28:25;;;;;;;2.28;2.05;;;;;;;;;;5075165;28;20396;-64
2022/07/31 11:30:52;;;;;;;2.20;2.00;;;;;;;;;;5093724;28;20099;-64
2022/07/31 11:33:39;;;;;;;1.70;1.60;;;;;;;;;;5089032;28;20029;-65
2022/07/31 11:36:06;;;;;;;3.05;1.90;;;;;;;;;;5073550;28;20020;-64
2022/07/31 11:38:33;;;;;;;2.90;2.00;;;;;;;;;;5073241;28;20093;-64
2022/07/31 11:40:59;;;;;;;2.67;2.20;;;;;;;;;;5075036;28;20054;-64
2022/07/31 11:43:25;;;;;;;2.13;1.92;;;;;;;;;;5093400;28;20024;-65
2022/07/31 11:45:52;;;;;;;2.33;2.13;;;;;;;;;;5075258;28;20020;-64
2022/07/31 11:48:19;;;;;;;3.63;2.35;;;;;;;;;;5092803;28;20113;-64
2022/07/31 11:50:45;;;;;;;4.28;1.77;;;;;;;;;;5092033;28;20028;-64
2022/07/31 11:53:11;;;;;;;2.25;1.80;;;;;;;;;;5092916;28;20233;-65
2022/07/31 11:55:37;;;;;;;;;;;;;;;;;;5092674;28;20031;-64
2022/07/31 11:58:08;;;;;;;2.47;1.58;;;;;;;;;;5098771;28;19961;-64
2022/07/31 12:00:34;;;;;;;1.85;1.42;;;;;;;;;;5084181;28;20036;-64
2022/07/31 12:03:00;;;;;;;3.28;1.60;;;;;;;;;;5073097;28;20035;-65
2022/07/31 12:05:26;;;;;;;5.00;1.95;;;;;;;;;;5084840;28;20030;-65
2022/07/31 12:07:52;;;;;;;5.72;2.00;;;;;;;;;;5082689;28;20107;-64
2022/07/31 12:10:18;;;;;;;5.70;1.70;;;;;;;;;;5088302;28;20032;-64
2022/07/31 12:12:44;;;;;;;2.58;1.63;;;;;;;;;;5092052;28;20020;-65
2022/07/31 12:15:14;;;;;;;2.25;1.60;;;;;;;;;;5092395;28;20035;-65
2022/07/31 12:17:40;;;;;;;2.40;1.88;;;;;;;;;;5093554;28;20027;-64
2022/07/31 12:20:08;;;;;;;3.13;2.05;;;;;;;;;;5090393;28;20489;-64
2022/07/31 12:22:34;;;;;;;2.83;2.28;;;;;;;;;;5073214;28;20053;-64
2022/07/31 12:25:01;;;;;;;3.05;1.70;;;;;;;;;;5092834;28;20020;-64
2022/07/31 12:27:27;;;;;;;;;;;;;;;;;;5093026;28;20016;-64
2022/07/31 12:29:53;;;;;;;3.38;1.80;;;;;;;;;;5092268;28;19911;-64
2022/07/31 12:32:26;;;;;;;2.97;2.00;;;;;;;;;;5092158;28;20038;-64
2022/07/31 12:35:02;;;;;;;2.35;1.58;;;;;;;;;;5092587;28;20054;-64
2022/07/31 12:37:28;;;;;;;2.20;1.92;;;;;;;;;;5091981;28;20035;-64
2022/07/31 12:39:55;;;;;;;2.67;1.90;;;;;;;;;;5073831;28;20032;-63
2022/07/31 12:42:21;;;;;;;3.38;1.85;;;;;;;;;;5092331;28;20059;-64
2022/07/31 12:44:48;;;;;;;4.10;2.50;;;;;;;;;;5092394;28;20048;-64
2022/07/31 12:47:24;;;;;;;2.08;1.90;;;;;;;;;;5092106;28;20020;-64
2022/07/31 12:49:51;;;;;;;4.38;2.30;;;;;;;;;;5092194;28;20106;-64
2022/07/31 12:52:17;;;;;;;;;;;;;;;;;;5092757;28;20028;-64
2022/07/31 12:54:43;;;;;;;7.35;2.13;;;;;;;;;;5074045;28;19927;-64
2022/07/31 12:57:09;;;;;;;6.75;2.17;;;;;;;;;;5092058;28;20051;-65
2022/07/31 12:59:35;;;;;;;4.40;1.88;;;;;;;;;;5092063;28;20024;-64
2022/07/31 13:02:02;;;;;;;2.35;2.15;;;;;;;;;;5091981;28;20055;-64
2022/07/31 13:04:28;;;;;;;3.33;1.80;;;;;;;;;;5092070;28;20059;-64
2022/07/31 13:06:54;;;;;;;3.67;2.13;;;;;;;;;;5091918;28;20069;-64
2022/07/31 13:09:20;;;;;;;3.78;2.10;;;;;;;;;;5091895;28;20024;-64
2022/07/31 13:11:46;;;;;;;3.95;2.03;;;;;;;;;;5091927;28;20497;-65
2022/07/31 13:14:12;;;;;;;4.13;2.40;;;;;;;;;;5091942;28;20032;-64
2022/07/31 13:16:38;;;;;;;2.33;1.85;;;;;;;;;;5091725;28;20024;-64
2022/07/31 13:19:06;;;;;;;3.15;2.40;;;;;;;;;;5091803;28;20053;-64
2022/07/31 13:21:32;;;;;;;2.35;2.08;;;;;;;;;;5091757;28;20023;-64
2022/07/31 13:23:58;;;;;;;4.88;2.20;;;;;;;;;;5073545;28;20024;-65
2022/07/31 13:26:26;;;;;;;4.60;2.70;;;;;;;;;;5091480;28;20024;-64
2022/07/31 13:28:52;;;;;;;2.35;2.10;;;;;;;;;;5091502;28;20031;-65
2022/07/31 13:31:18;;;;;;;4.07;2.22;;;;;;;;;;5073529;28;20051;-65
2022/07/31 13:33:44;;;;;;;2.63;1.85;;;;;;;;;;5091690;28;20028;-65
2022/07/31 13:36:10;;;;;;;;;;;;;;;;;;5092042;28;20095;-66
2022/07/31 13:38:36;;;;;;;3.38;1.98;;;;;;;;;;5073394;28;19947;-66
2022/07/31 13:43:47;;;;;;;4.38;2.22;;;;;;;;;;5095853;28;20039;-65
2022/07/31 13:46:13;;;;;;;2.67;1.80;;;;;;;;;;5095649;28;20099;-65
2022/07/31 13:48:39;;;;;;;3.42;1.92;;;;;;;;;;5095800;28;20211;-65
2022/07/31 13:51:05;;;;;;;2.30;2.08;;;;;;;;;;5095372;28;20032;-65
2022/07/31 13:53:31;;;;;;;2.60;1.67;;;;;;;;;;5095707;28;20028;-65
2022/07/31 13:55:58;;;;;;;3.28;2.03;;;;;;;;;;5095484;28;20031;-66
2022/07/31 13:58:27;;;;;;;2.30;1.83;;;;;;;;;;5095352;28;20028;-66
2022/07/31 14:00:54;;;;;;;4.88;2.08;;;;;;;;;;5095532;28;20055;-64
2022/07/31 14:03:20;;;;;;;5.13;1.85;;;;;;;;;;5095418;28;20028;-64
2022/07/31 14:05:46;;;;;;;1.60;1.50;;;;;;;;;;5077424;28;20020;-64
2022/07/31 14:08:12;;;;;;;3.47;2.10;;;;;;;;;;5095159;28;20028;-64
2022/07/31 14:10:38;;;;;;;3.38;1.70;;;;;;;;;;5095168;28;20035;-64
2022/07/31 14:13:05;;;;;;;3.72;1.83;;;;;;;;;;5095535;28;20107;-64
2022/07/31 14:15:31;;;;;;;4.93;2.30;;;;;;;;;;5095195;28;20028;-64
2022/07/31 14:17:57;;;;;;;4.13;1.95;;;;;;;;;;5095249;28;20435;-64
2022/07/31 14:20:24;;;;;;;2.35;1.52;;;;;;;;;;5095001;28;20024;-64
2022/07/31 14:22:50;;;;;;;1.80;1.70;;;;;;;;;;5095082;28;20405;-64